Time;durP1;ratioP1;P1;durP2;ratioP2;P2;SDS_P1;SDS_P2;PMS_P1;PMS_P2;Temp;Humidity;BMP_temperature;BMP_pressure;BME280_temperature;BME280_humidity;BME280_pressure;Samples;Min_cycle;Max_cycle;Signal;HPM_P1;HPM_P2
2021/09/14 00:00:43;;;;;;;32.20;29.40;;;13.40;99.90;;;;;;5055151;28;20484;-71
2021/09/14 00:03:13;;;;;;;36.60;31.07;;;13.30;99.90;;;;;;5045948;28;20456;-70
2021/09/14 00:05:40;;;;;;;33.07;30.07;;;13.20;99.90;;;;;;5037531;28;20472;-70
2021/09/14 00:08:08;;;;;;;32.63;29.80;;;13.20;99.90;;;;;;5037509;28;20492;-71
2021/09/14 00:10:35;;;;;;;32.17;29.03;;;13.10;99.90;;;;;;5047560;28;20978;-71
2021/09/14 00:13:04;;;;;;;34.40;31.33;;;13.00;99.90;;;;;;5041545;28;20460;-71
2021/09/14 00:15:31;;;;;;;33.20;30.20;;;13.00;99.90;;;;;;5048817;28;20961;-71
2021/09/14 00:17:58;;;;;;;33.03;29.90;;;13.10;99.90;;;;;;5043544;28;20477;-71
2021/09/14 00:20:25;;;;;;;32.80;30.10;;;13.20;99.90;;;;;;5046861;28;20451;-71
2021/09/14 00:22:53;;;;;;;34.17;31.13;;;13.10;99.90;;;;;;5054537;28;20500;-71
2021/09/14 00:25:19;;;;;;;36.67;33.17;;;13.00;99.90;;;;;;5039800;28;20464;-70
2021/09/14 00:27:46;;;;;;;35.37;32.17;;;13.00;99.90;;;;;;5048520;28;20455;-70
2021/09/14 00:30:16;;;;;;;35.83;32.43;;;12.90;99.90;;;;;;5041537;28;20812;-71
2021/09/14 00:32:43;;;;;;;34.90;32.00;;;12.90;99.90;;;;;;5044796;28;20457;-71
2021/09/14 00:35:11;;;;;;;35.23;31.77;;;13.00;99.90;;;;;;5048248;28;20483;-71
2021/09/14 00:37:38;;;;;;;35.70;32.20;;;13.00;99.90;;;;;;5037853;28;20813;-70
2021/09/14 00:40:07;;;;;;;36.73;33.20;;;12.90;99.90;;;;;;5038789;28;20463;-71
2021/09/14 00:42:35;;;;;;;35.23;32.13;;;12.90;99.90;;;;;;5048363;28;20571;-70
2021/09/14 00:45:02;;;;;;;33.87;31.03;;;12.90;99.90;;;;;;5056441;28;20520;-70
2021/09/14 00:47:33;;;;;;;34.60;31.50;;;12.90;99.90;;;;;;5044367;28;20455;-72
2021/09/14 00:50:00;;;;;;;36.93;33.37;;;12.80;99.90;;;;;;5051644;28;20631;-70
2021/09/14 00:52:29;;;;;;;35.00;31.80;;;12.80;99.90;;;;;;5056124;28;20460;-70
2021/09/14 00:54:56;;;;;;;35.30;31.87;;;12.80;99.90;;;;;;5058243;28;21241;-70
2021/09/14 00:57:23;;;;;;;36.90;33.40;;;12.80;99.90;;;;;;5043723;28;20455;-70
2021/09/14 00:59:49;;;;;;;38.20;34.60;;;12.80;99.90;;;;;;5039444;28;20490;-71
2021/09/14 01:02:16;;;;;;;36.30;32.80;;;12.80;99.90;;;;;;5041601;28;20457;-70
2021/09/14 01:04:45;;;;;;;38.33;34.40;;;12.70;99.90;;;;;;5039048;28;20769;-70
2021/09/14 01:07:12;;;;;;;38.07;34.40;;;12.70;99.90;;;;;;5048504;28;20476;-71
2021/09/14 01:09:42;;;;;;;37.60;33.50;;;12.80;99.90;;;;;;5052174;28;20466;-71
2021/09/14 01:12:10;;;;;;;37.17;33.33;;;12.70;99.90;;;;;;5052141;28;20459;-70
2021/09/14 01:14:37;;;;;;;36.80;33.30;;;12.70;99.90;;;;;;5049126;28;20812;-70
2021/09/14 01:17:04;;;;;;;39.80;36.20;;;12.70;99.90;;;;;;5045442;28;20468;-71
2021/09/14 01:19:32;;;;;;;37.17;33.87;;;12.70;99.90;;;;;;5049615;28;20870;-70
2021/09/14 01:22:00;;;;;;;39.03;35.43;;;12.80;99.90;;;;;;5039134;28;20460;-71
2021/09/14 01:24:29;;;;;;;40.73;35.33;;;12.70;99.90;;;;;;5045016;28;20460;-71
2021/09/14 01:26:56;;;;;;;37.83;34.30;;;12.60;99.90;;;;;;5046348;28;20788;-71
2021/09/14 01:32:09;;;;;;;39.27;35.27;;;12.70;99.90;;;;;;5054129;28;20961;-70
2021/09/14 01:34:36;;;;;;;40.53;36.73;;;12.70;99.90;;;;;;5040971;28;20577;-70
2021/09/14 01:37:03;;;;;;;38.83;35.30;;;12.70;99.90;;;;;;5063744;28;20580;-71
2021/09/14 01:39:31;;;;;;;38.90;35.40;;;12.60;99.90;;;;;;5053497;28;20836;-70
2021/09/14 01:41:58;;;;;;;40.93;37.03;;;12.60;99.90;;;;;;5039169;28;20464;-71
2021/09/14 01:44:25;;;;;;;42.77;34.37;;;12.60;99.90;;;;;;5042343;28;20456;-70
2021/09/14 01:46:53;;;;;;;40.57;36.83;;;12.50;99.90;;;;;;5046882;28;20456;-70
2021/09/14 01:49:20;;;;;;;38.67;35.17;;;12.50;99.90;;;;;;5055569;28;20455;-70
2021/09/14 01:51:47;;;;;;;38.93;35.27;;;12.40;99.90;;;;;;5040690;28;20456;-70
2021/09/14 01:54:15;;;;;;;38.43;34.83;;;12.40;99.90;;;;;;5043498;28;20518;-70
2021/09/14 01:56:44;;;;;;;38.73;35.23;;;12.30;99.90;;;;;;5049062;28;20468;-69
2021/09/14 01:59:14;;;;;;;39.53;35.33;;;12.30;99.90;;;;;;5038090;28;20494;-70
2021/09/14 02:01:44;;;;;;;38.97;35.37;;;12.30;99.90;;;;;;5049648;28;20506;-70
2021/09/14 02:04:16;;;;;;;38.93;35.40;;;12.30;99.90;;;;;;5044852;28;20464;-70
2021/09/14 02:07:13;;;;;;;39.40;35.07;;;12.30;99.90;;;;;;5045703;28;20566;-70
2021/09/14 02:23:58;;;;;;;38.80;35.00;;;12.40;99.90;;;;;;5038545;28;20446;-71
2021/09/14 02:40:44;;;;;;;38.40;34.83;;;12.20;99.90;;;;;;5049289;28;20490;-70
2021/09/14 02:43:24;;;;;;;40.97;37.17;;;12.10;99.90;;;;;;5038269;28;20519;-70
2021/09/14 02:59:46;;;;;;;44.53;39.70;;;12.10;99.90;;;;;;5047872;28;20500;-71
2021/09/14 03:02:17;;;;;;;44.37;40.07;;;12.10;99.90;;;;;;5049361;28;20444;-69
2021/09/14 03:04:44;;;;;;;45.37;40.73;;;12.10;99.90;;;;;;5038406;28;20497;-69
2021/09/14 03:07:11;;;;;;;39.73;36.00;;;12.20;99.90;;;;;;5062002;28;20815;-69
2021/09/14 03:09:40;;;;;;;42.67;38.30;;;12.20;99.90;;;;;;5049956;28;20824;-70
2021/09/14 03:12:08;;;;;;;42.90;38.30;;;12.30;99.90;;;;;;5045600;28;20478;-70
2021/09/14 03:14:35;;;;;;;40.87;36.80;;;12.30;99.90;;;;;;5040559;28;20966;-69
2021/09/14 03:17:03;;;;;;;41.87;37.70;;;12.30;99.90;;;;;;5045222;28;20457;-69
2021/09/14 03:19:31;;;;;;;42.13;37.80;;;12.30;99.90;;;;;;5047199;28;20500;-70
2021/09/14 03:21:58;;;;;;;40.87;37.07;;;12.30;99.90;;;;;;5055629;28;20760;-69
2021/09/14 03:24:25;;;;;;;40.63;36.63;;;12.30;99.90;;;;;;5049796;28;20979;-70
2021/09/14 03:26:53;;;;;;;40.07;36.00;;;12.20;99.90;;;;;;5051761;28;20471;-69
2021/09/14 03:29:20;;;;;;;44.90;39.13;;;12.10;99.90;;;;;;5048954;28;20464;-71
2021/09/14 03:31:48;;;;;;;38.97;35.37;;;12.00;99.90;;;;;;5044960;28;20463;-69
2021/09/14 03:34:16;;;;;;;38.10;34.47;;;12.00;99.90;;;;;;5049838;28;21038;-69
2021/09/14 03:36:47;;;;;;;40.80;36.97;;;12.00;99.90;;;;;;5043548;28;20513;-69
2021/09/14 03:39:15;;;;;;;43.60;39.23;;;11.90;99.90;;;;;;5043330;28;20503;-70
2021/09/14 03:41:42;;;;;;;43.30;38.60;;;11.90;99.90;;;;;;5045207;28;20464;-69
2021/09/14 03:44:10;;;;;;;51.53;40.50;;;12.00;99.90;;;;;;5042301;28;20471;-71
2021/09/14 03:46:37;;;;;;;44.97;40.27;;;12.10;99.90;;;;;;5038022;28;20942;-69
2021/09/14 03:49:04;;;;;;;44.37;39.50;;;12.10;99.90;;;;;;5037228;28;20887;-70
2021/09/14 03:51:33;;;;;;;42.50;38.10;;;12.30;99.90;;;;;;5044038;28;20503;-70
2021/09/14 03:54:01;;;;;;;45.43;40.63;;;12.30;99.90;;;;;;5046679;28;20465;-69
2021/09/14 03:56:29;;;;;;;45.00;40.33;;;12.30;99.90;;;;;;5047752;28;20456;-70
2021/09/14 03:58:56;;;;;;;45.60;40.70;;;12.40;99.90;;;;;;5046967;28;20479;-69
2021/09/14 04:01:23;;;;;;;42.03;37.57;;;12.40;99.90;;;;;;5040758;28;20456;-70
2021/09/14 04:03:56;;;;;;;44.53;39.83;;;12.40;99.90;;;;;;5046607;28;20545;-70
2021/09/14 04:06:41;;;;;;;42.30;38.13;;;12.40;99.90;;;;;;5040858;28;20476;-69
2021/09/14 04:09:11;;;;;;;42.87;38.47;;;12.40;99.90;;;;;;5038661;28;20471;-69
2021/09/14 04:11:39;;;;;;;42.80;38.13;;;12.40;99.90;;;;;;5044858;28;21016;-70
2021/09/14 04:14:06;;;;;;;44.17;39.47;;;12.30;99.90;;;;;;5048680;28;20521;-69
2021/09/14 04:16:33;;;;;;;43.80;39.40;;;12.30;99.90;;;;;;5044450;28;20838;-70
2021/09/14 04:19:00;;;;;;;41.87;37.37;;;12.20;99.90;;;;;;5041438;28;20483;-69
2021/09/14 04:21:28;;;;;;;42.20;37.97;;;12.20;99.90;;;;;;5039896;28;20469;-69
2021/09/14 04:23:55;;;;;;;43.40;38.67;;;12.20;99.90;;;;;;5041412;28;20465;-71
2021/09/14 04:26:24;;;;;;;42.53;38.33;;;12.20;99.90;;;;;;5051811;28;20464;-69
2021/09/14 04:28:51;;;;;;;45.30;40.83;;;12.20;99.90;;;;;;5043843;28;20448;-70
2021/09/14 04:31:18;;;;;;;43.43;39.20;;;12.20;99.90;;;;;;5043097;28;20464;-69
2021/09/14 04:33:45;;;;;;;40.50;36.67;;;12.20;99.90;;;;;;5041765;28;20487;-70
2021/09/14 04:36:14;;;;;;;43.70;39.27;;;12.10;99.90;;;;;;5040675;28;20457;-70
2021/09/14 04:38:42;;;;;;;43.27;38.67;;;12.10;99.90;;;;;;5049141;28;20464;-70
2021/09/14 04:41:09;;;;;;;43.57;39.17;;;12.00;99.90;;;;;;5050623;28;20474;-69
2021/09/14 04:43:39;;;;;;;44.30;39.93;;;12.00;99.90;;;;;;5041290;28;20483;-70
2021/09/14 04:46:07;;;;;;;46.47;41.63;;;12.00;99.90;;;;;;5043388;28;20481;-69
2021/09/14 04:48:34;;;;;;;46.17;41.37;;;12.10;99.90;;;;;;5049688;28;20460;-69
2021/09/14 04:51:00;;;;;;;43.80;39.07;;;12.10;99.90;;;;;;5054541;28;20460;-69
2021/09/14 04:53:28;;;;;;;41.53;37.20;;;12.10;99.90;;;;;;5047108;28;20470;-69
2021/09/14 04:55:55;;;;;;;41.20;36.87;;;12.10;99.90;;;;;;5045373;28;20447;-70
2021/09/14 04:58:22;;;;;;;43.40;39.30;;;12.10;99.90;;;;;;5042009;28;20449;-70
2021/09/14 05:00:52;;;;;;;45.00;40.00;;;12.10;99.90;;;;;;5045519;28;20499;-69
2021/09/14 05:03:19;;;;;;;44.40;39.90;;;12.10;99.90;;;;;;5044620;28;20457;-69
2021/09/14 05:05:46;;;;;;;43.03;38.17;;;12.10;99.90;;;;;;5046845;28;20595;-68
2021/09/14 05:08:13;;;;;;;43.53;39.10;;;12.10;99.90;;;;;;5047520;28;20845;-68
2021/09/14 05:10:40;;;;;;;42.33;38.27;;;12.10;99.90;;;;;;5052462;28;20452;-70
2021/09/14 05:13:08;;;;;;;43.03;38.90;;;12.00;99.90;;;;;;5041558;28;20455;-69
2021/09/14 05:15:35;;;;;;;46.30;39.17;;;12.00;99.90;;;;;;5044029;28;20470;-69
2021/09/14 05:18:10;;;;;;;44.03;39.70;;;12.00;99.90;;;;;;5050660;28;20447;-69
2021/09/14 05:20:36;;;;;;;46.43;41.67;;;12.00;99.90;;;;;;5043902;28;20528;-69
2021/09/14 05:23:12;;;;;;;44.20;39.57;;;12.00;99.90;;;;;;5044581;28;20455;-70
2021/09/14 05:25:40;;;;;;;44.10;39.60;;;12.00;99.90;;;;;;5043006;28;20546;-69
2021/09/14 05:28:09;;;;;;;45.87;41.13;;;12.10;99.90;;;;;;5036353;28;20489;-69
2021/09/14 05:30:36;;;;;;;46.10;39.90;;;12.20;99.90;;;;;;5040836;28;20963;-69
2021/09/14 05:33:05;;;;;;;43.00;38.80;;;12.20;99.90;;;;;;5050279;28;20451;-70
2021/09/14 05:35:38;;;;;;;43.90;39.53;;;12.20;99.90;;;;;;5051606;28;20489;-70
2021/09/14 05:38:06;;;;;;;48.00;38.90;;;12.30;99.90;;;;;;5040396;28;20456;-70
2021/09/14 05:40:32;;;;;;;43.20;38.70;;;12.40;99.90;;;;;;5039305;28;20494;-70
2021/09/14 05:42:59;;;;;;;45.37;40.90;;;12.40;99.90;;;;;;5037816;28;20806;-69
2021/09/14 05:45:27;;;;;;;42.37;38.03;;;12.50;99.90;;;;;;5054524;28;20965;-69
2021/09/14 05:47:54;;;;;;;45.87;37.43;;;12.60;99.90;;;;;;5045492;28;21119;-70
2021/09/14 05:50:23;;;;;;;43.63;38.60;;;12.90;99.90;;;;;;5047522;28;20543;-69
2021/09/14 05:52:50;;;;;;;42.17;37.37;;;13.00;99.90;;;;;;5041719;28;20464;-68
2021/09/14 05:55:17;;;;;;;40.33;36.53;;;13.20;99.90;;;;;;5037603;28;21057;-69
2021/09/14 05:57:44;;;;;;;44.70;40.10;;;13.30;99.90;;;;;;5038654;28;20811;-70
2021/09/14 06:00:12;;;;;;;44.80;39.00;;;13.40;99.90;;;;;;5055084;28;20489;-69
2021/09/14 06:02:39;;;;;;;48.23;39.17;;;13.50;99.90;;;;;;5044157;28;20471;-68
2021/09/14 06:05:08;;;;;;;41.33;37.30;;;13.80;99.90;;;;;;5051013;28;20455;-69
2021/09/14 06:07:36;;;;;;;50.60;38.43;;;13.90;99.90;;;;;;5045609;28;20815;-69
2021/09/14 06:10:04;;;;;;;44.33;39.57;;;14.00;99.90;;;;;;5045790;28;20467;-68
2021/09/14 06:12:31;;;;;;;43.80;38.53;;;14.20;99.90;;;;;;5045916;28;20468;-68
2021/09/14 06:15:00;;;;;;;43.17;38.30;;;14.20;99.90;;;;;;5049239;28;20459;-68
2021/09/14 06:17:28;;;;;;;45.33;40.70;;;14.20;99.90;;;;;;5042311;28;21194;-69
2021/09/14 06:19:55;;;;;;;54.23;41.60;;;14.40;99.90;;;;;;5055854;28;20822;-69
2021/09/14 06:22:24;;;;;;;49.50;40.60;;;14.50;99.90;;;;;;5040392;28;20452;-68
2021/09/14 06:24:54;;;;;;;52.70;39.03;;;14.60;99.90;;;;;;5044724;28;20466;-69
2021/09/14 06:27:21;;;;;;;44.67;40.57;;;14.70;99.90;;;;;;5051988;28;20935;-69
2021/09/14 06:29:49;;;;;;;45.13;37.60;;;14.80;99.90;;;;;;5039697;28;21002;-69
2021/09/14 06:32:16;;;;;;;43.70;39.10;;;14.80;99.90;;;;;;5052961;28;20542;-69
2021/09/14 06:34:43;;;;;;;42.20;37.63;;;14.90;99.90;;;;;;5045713;28;20486;-68
2021/09/14 06:37:10;;;;;;;55.50;39.03;;;15.00;99.90;;;;;;5045788;28;20511;-70
2021/09/14 06:39:37;;;;;;;50.80;40.80;;;15.10;99.90;;;;;;5050413;28;20451;-68
2021/09/14 06:42:06;;;;;;;45.40;38.83;;;15.20;99.90;;;;;;5051060;28;20461;-68
2021/09/14 06:44:33;;;;;;;51.87;40.53;;;15.30;99.90;;;;;;5040099;28;20746;-68
2021/09/14 06:47:02;;;;;;;53.43;39.67;;;15.40;99.90;;;;;;5043126;28;20824;-68
2021/09/14 06:49:31;;;;;;;42.37;37.80;;;15.50;99.90;;;;;;5043073;28;20452;-69
2021/09/14 06:51:58;;;;;;;41.60;36.53;;;15.70;99.90;;;;;;5043188;28;20458;-69
2021/09/14 06:54:25;;;;;;;40.87;36.67;;;15.80;99.90;;;;;;5044145;28;20456;-69
2021/09/14 06:56:53;;;;;;;42.07;37.00;;;15.90;99.90;;;;;;5043696;28;20458;-66
2021/09/14 06:59:23;;;;;;;40.60;36.60;;;15.90;99.90;;;;;;5053990;28;20450;-68
2021/09/14 07:01:50;;;;;;;39.57;35.63;;;16.10;99.90;;;;;;5041361;28;20506;-68
2021/09/14 07:04:17;;;;;;;39.23;35.10;;;16.20;99.90;;;;;;5043964;28;20463;-67
2021/09/14 07:06:46;;;;;;;39.03;34.90;;;16.20;99.90;;;;;;5045507;28;20465;-67
2021/09/14 07:09:15;;;;;;;39.43;33.77;;;16.30;99.90;;;;;;5052292;28;20476;-67
2021/09/14 07:11:41;;;;;;;36.37;32.93;;;16.50;99.90;;;;;;5046137;28;20514;-67
2021/09/14 07:14:11;;;;;;;41.53;33.23;;;16.60;99.90;;;;;;5054335;28;20701;-69
2021/09/14 07:16:39;;;;;;;41.23;30.90;;;16.70;99.90;;;;;;5041347;28;20453;-68
2021/09/14 07:19:06;;;;;;;34.90;31.30;;;16.80;99.90;;;;;;5043574;28;20578;-69
2021/09/14 07:21:35;;;;;;;34.13;31.13;;;16.80;99.90;;;;;;5049576;28;20880;-67
2021/09/14 07:24:02;;;;;;;35.30;31.60;;;16.80;99.90;;;;;;5046493;28;20465;-68
2021/09/14 07:26:29;;;;;;;32.97;29.67;;;16.90;99.90;;;;;;5049317;28;20508;-68
2021/09/14 07:28:56;;;;;;;32.60;29.37;;;17.00;99.90;;;;;;5043343;28;20470;-67
2021/09/14 07:31:23;;;;;;;32.40;29.03;;;17.00;99.90;;;;;;5043631;28;20533;-68
2021/09/14 07:33:53;;;;;;;34.27;30.60;;;17.10;99.90;;;;;;5047364;28;20484;-68
2021/09/14 07:36:20;;;;;;;33.67;30.67;;;17.20;99.90;;;;;;5038982;28;20455;-68
2021/09/14 07:38:49;;;;;;;34.87;31.20;;;17.30;99.90;;;;;;5045126;28;20456;-68
2021/09/14 07:41:16;;;;;;;33.03;29.17;;;17.50;99.90;;;;;;5046329;28;20484;-68
2021/09/14 07:43:43;;;;;;;39.57;30.07;;;17.60;99.90;;;;;;5044120;28;20538;-68
2021/09/14 07:46:10;;;;;;;37.63;30.53;;;17.70;99.90;;;;;;5051606;28;20458;-68
2021/09/14 07:48:37;;;;;;;31.90;28.60;;;17.80;99.90;;;;;;5054635;28;20467;-68
2021/09/14 07:51:06;;;;;;;33.70;29.77;;;17.90;99.90;;;;;;5049312;28;20931;-70
2021/09/14 07:53:35;;;;;;;31.27;28.23;;;18.10;99.90;;;;;;5043713;28;20464;-68
2021/09/14 07:56:02;;;;;;;34.77;27.00;;;18.20;99.90;;;;;;5040167;28;20478;-69
2021/09/14 07:58:30;;;;;;;30.40;27.40;;;18.20;99.90;;;;;;5042436;28;20467;-68
2021/09/14 08:00:57;;;;;;;30.03;27.30;;;18.40;99.90;;;;;;5043855;28;20908;-68
2021/09/14 08:03:24;;;;;;;30.37;27.17;;;18.50;99.90;;;;;;5048594;28;20487;-70
2021/09/14 08:05:53;;;;;;;29.40;26.50;;;18.50;99.90;;;;;;5052653;28;20499;-68
2021/09/14 08:08:22;;;;;;;28.80;25.70;;;18.80;99.90;;;;;;5037510;28;20794;-68
2021/09/14 08:10:50;;;;;;;36.43;25.87;;;18.90;99.90;;;;;;5041384;28;20553;-67
2021/09/14 08:13:18;;;;;;;27.47;25.17;;;19.10;99.90;;;;;;5045250;28;20467;-69
2021/09/14 08:15:46;;;;;;;25.47;23.03;;;19.40;99.90;;;;;;5048037;28;20470;-70
2021/09/14 08:18:14;;;;;;;26.80;24.03;;;19.60;99.90;;;;;;5049250;28;20456;-69
2021/09/14 08:20:41;;;;;;;26.10;23.33;;;19.80;99.90;;;;;;5051497;28;20477;-69
2021/09/14 08:23:08;;;;;;;25.93;22.93;;;20.00;99.90;;;;;;5050189;28;20467;-69
2021/09/14 08:25:36;;;;;;;24.70;22.50;;;20.10;99.90;;;;;;5040780;28;20467;-68
2021/09/14 08:28:04;;;;;;;24.90;22.23;;;20.40;99.90;;;;;;5042003;28;20453;-68
2021/09/14 08:30:31;;;;;;;24.40;22.47;;;20.50;99.90;;;;;;5047324;28;20578;-69
2021/09/14 08:32:59;;;;;;;23.80;21.90;;;20.70;99.90;;;;;;5042197;28;20475;-69
2021/09/14 08:35:26;;;;;;;27.60;21.80;;;21.00;99.90;;;;;;5041136;28;20481;-69
2021/09/14 08:37:53;;;;;;;23.23;21.23;;;21.10;99.90;;;;;;5044989;28;20887;-69
2021/09/14 08:40:19;;;;;;;23.00;20.97;;;21.30;99.90;;;;;;5040921;28;20476;-69
2021/09/14 08:42:50;;;;;;;22.80;20.67;;;21.50;99.90;;;;;;5040201;28;20463;-69
2021/09/14 08:45:17;;;;;;;22.60;20.90;;;21.50;99.90;;;;;;5043439;28;20464;-68
2021/09/14 08:47:48;;;;;;;20.43;18.87;;;21.70;99.90;;;;;;5050930;28;20463;-70
2021/09/14 08:50:15;;;;;;;22.50;20.70;;;21.80;99.90;;;;;;5043144;28;20472;-69
2021/09/14 08:52:42;;;;;;;22.87;20.63;;;21.80;99.90;;;;;;5041673;28;20459;-68
2021/09/14 08:55:10;;;;;;;25.53;20.70;;;21.90;99.90;;;;;;5040985;28;20819;-71
2021/09/14 08:57:37;;;;;;;22.27;20.17;;;22.10;99.90;;;;;;5057919;28;20456;-69
2021/09/14 09:00:09;;;;;;;20.47;18.97;;;22.20;99.90;;;;;;5047615;28;20459;-69
2021/09/14 09:02:36;;;;;;;21.17;19.63;;;22.10;99.90;;;;;;5048626;28;20455;-69
2021/09/14 09:05:05;;;;;;;22.37;20.27;;;22.20;99.90;;;;;;5050162;28;20459;-69
2021/09/14 09:07:35;;;;;;;20.70;19.00;;;22.20;99.90;;;;;;5041403;28;20553;-69
2021/09/14 09:10:11;;;;;;;21.13;19.03;;;22.40;99.90;;;;;;5047279;28;20448;-69
2021/09/14 09:12:43;;;;;;;21.07;19.33;;;22.60;99.90;;;;;;5045310;28;20463;-68
2021/09/14 09:15:22;;;;;;;20.97;19.10;;;22.60;99.90;;;;;;5038971;28;20482;-69
2021/09/14 09:18:07;;;;;;;20.90;19.20;;;22.90;99.90;;;;;;5036554;28;20464;-71
2021/09/14 09:20:35;;;;;;;21.37;19.13;;;23.10;99.90;;;;;;5037291;28;20577;-69
2021/09/14 09:23:05;;;;;;;20.47;18.40;;;23.70;99.90;;;;;;5043787;28;20509;-70
2021/09/14 09:25:34;;;;;;;19.93;18.40;;;24.60;99.90;;;;;;5047835;28;20529;-70
2021/09/14 09:28:11;;;;;;;19.83;18.63;;;25.60;99.90;;;;;;5053583;28;20946;-71
2021/09/14 09:30:41;;;;;;;20.03;17.83;;;26.30;99.90;;;;;;5049281;28;20463;-71
2021/09/14 09:33:10;;;;;;;19.30;17.90;;;26.50;99.90;;;;;;5043502;28;20983;-69
2021/09/14 09:35:39;;;;;;;19.90;17.90;;;27.00;99.90;;;;;;5046084;28;21053;-70
2021/09/14 09:38:07;;;;;;;19.33;17.90;;;27.50;99.90;;;;;;5040086;28;20467;-71
2021/09/14 09:40:36;;;;;;;19.97;17.97;;;27.70;99.90;;;;;;5050751;28;20462;-71
2021/09/14 09:43:07;;;;;;;20.83;18.67;;;28.10;99.90;;;;;;5041542;28;20453;-70
2021/09/14 09:45:43;;;;;;;17.63;16.37;;;28.40;99.90;;;;;;5052204;28;20464;-71
2021/09/14 09:48:10;;;;;;;20.60;18.70;;;28.60;99.90;;;;;;5042580;28;20818;-71
2021/09/14 09:50:39;;;;;;;21.37;19.73;;;28.20;99.90;;;;;;5047130;28;20534;-70
2021/09/14 09:53:07;;;;;;;19.60;18.30;;;27.50;99.90;;;;;;5044289;28;20465;-70
2021/09/14 09:55:35;;;;;;;19.10;17.90;;;26.90;99.90;;;;;;5051539;28;20468;-71
2021/09/14 09:58:05;;;;;;;19.73;17.70;;;26.90;99.90;;;;;;5045356;28;20839;-70
2021/09/14 10:00:34;;;;;;;20.30;18.13;;;26.90;99.90;;;;;;5051450;28;20501;-70
2021/09/14 10:03:07;;;;;;;21.40;19.23;;;26.80;99.90;;;;;;5052884;28;20775;-71
2021/09/14 10:05:38;;;;;;;19.93;18.63;;;27.30;99.90;;;;;;5040671;28;20930;-70
2021/09/14 10:08:10;;;;;;;19.50;17.70;;;28.00;99.90;;;;;;5041633;28;20827;-70
2021/09/14 10:10:38;;;;;;;21.00;18.90;;;28.50;99.90;;;;;;5043518;28;20456;-69
2021/09/14 10:13:06;;;;;;;24.47;18.43;;;29.40;99.90;;;;;;5051839;28;20460;-71
2021/09/14 10:15:43;;;;;;;20.00;18.43;;;30.10;99.90;;;;;;5050098;28;20447;-72
2021/09/14 10:18:12;;;;;;;26.83;18.40;;;30.50;99.90;;;;;;5046483;28;20459;-71
2021/09/14 10:20:41;;;;;;;19.17;17.70;;;30.80;99.90;;;;;;5048195;28;20941;-71
2021/09/14 10:23:16;;;;;;;19.73;17.80;;;30.40;99.90;;;;;;5049601;28;20455;-71
2021/09/14 10:25:46;;;;;;;18.87;17.27;;;30.40;99.90;;;;;;5045187;28;20453;-70
2021/09/14 10:28:14;;;;;;;20.13;18.57;;;30.00;99.90;;;;;;5041130;28;20491;-71
2021/09/14 10:30:43;;;;;;;20.07;18.20;;;30.40;99.90;;;;;;5047724;28;20483;-71
2021/09/14 10:33:20;;;;;;;18.77;16.77;;;30.30;99.90;;;;;;5045123;28;20464;-70
2021/09/14 10:35:48;;;;;;;22.27;16.80;;;30.60;99.90;;;;;;5046385;28;20463;-71
2021/09/14 10:38:16;;;;;;;17.73;15.80;;;30.60;99.90;;;;;;5044537;28;20463;-71
2021/09/14 10:40:46;;;;;;;20.87;17.00;;;30.40;99.90;;;;;;5048630;28;20456;-71
2021/09/14 10:43:27;;;;;;;18.40;17.10;;;30.30;99.90;;;;;;5042512;28;20471;-71
2021/09/14 10:45:56;;;;;;;18.87;17.43;;;30.10;99.90;;;;;;5052476;28;20455;-70
2021/09/14 10:48:27;;;;;;;20.40;18.53;;;30.30;99.90;;;;;;5049146;28;20468;-70
2021/09/14 10:50:56;;;;;;;19.30;18.00;;;30.20;99.90;;;;;;5050154;28;20957;-70
2021/09/14 10:53:30;;;;;;;19.67;18.33;;;30.60;99.90;;;;;;5044563;28;20459;-70
2021/09/14 10:56:00;;;;;;;19.47;17.87;;;31.00;99.90;;;;;;5043265;28;20459;-72
2021/09/14 10:58:28;;;;;;;18.50;17.20;;;31.60;99.90;;;;;;5046395;28;21042;-72
2021/09/14 11:00:55;;;;;;;20.37;18.53;;;31.50;99.90;;;;;;5040971;28;20800;-70
2021/09/14 11:03:22;;;;;;;19.50;17.90;;;31.20;99.30;;;;;;5041570;28;20884;-71
2021/09/14 11:05:53;;;;;;;19.03;17.60;;;30.90;99.90;;;;;;5043219;28;21017;-72
2021/09/14 11:08:25;;;;;;;19.80;18.03;;;31.50;99.00;;;;;;5047469;28;21031;-71
2021/09/14 11:10:58;;;;;;;19.53;18.13;;;32.10;98.90;;;;;;5041745;28;20452;-71
2021/09/14 11:13:27;;;;;;;19.77;18.13;;;32.40;98.30;;;;;;5044103;28;20744;-71
2021/09/14 11:16:00;;;;;;;19.93;18.20;;;32.50;98.00;;;;;;5046357;28;20472;-71
2021/09/14 11:18:29;;;;;;;18.80;17.50;;;33.30;97.00;;;;;;5043193;28;20978;-71
2021/09/14 11:21:04;;;;;;;20.20;18.83;;;33.90;96.00;;;;;;5052021;28;20462;-71
2021/09/14 11:23:32;;;;;;;20.03;18.27;;;34.50;94.80;;;;;;5045753;28;20460;-71
2021/09/14 11:26:00;;;;;;;20.10;18.70;;;34.70;94.10;;;;;;5046592;28;20463;-71
2021/09/14 11:28:27;;;;;;;20.70;19.20;;;34.40;93.00;;;;;;5047794;28;20499;-71
2021/09/14 11:30:56;;;;;;;19.60;18.40;;;33.60;93.20;;;;;;5052326;28;20458;-71
2021/09/14 11:33:25;;;;;;;19.30;17.93;;;33.50;93.70;;;;;;5059870;28;20454;-71
2021/09/14 11:35:55;;;;;;;19.93;18.30;;;33.60;93.50;;;;;;5054251;28;20459;-72
2021/09/14 11:38:25;;;;;;;19.80;18.57;;;34.00;93.00;;;;;;5041505;28;20448;-71
2021/09/14 11:40:54;;;;;;;19.90;18.60;;;33.80;93.30;;;;;;5044540;28;20454;-72
2021/09/14 11:43:23;;;;;;;20.00;18.23;;;33.80;93.20;;;;;;5044213;28;20460;-72
2021/09/14 11:45:52;;;;;;;19.47;18.17;;;33.40;92.30;;;;;;5053760;28;20453;-71
2021/09/14 11:48:22;;;;;;;20.90;18.90;;;32.90;93.10;;;;;;5050913;28;20930;-71
2021/09/14 11:51:01;;;;;;;18.90;17.60;;;32.20;93.50;;;;;;5046929;28;21022;-72
2021/09/14 11:53:30;;;;;;;18.07;16.77;;;32.20;94.00;;;;;;5040951;28;20543;-72
2021/09/14 11:55:57;;;;;;;18.47;17.17;;;31.90;94.80;;;;;;5055046;28;20450;-72
2021/09/14 11:58:33;;;;;;;18.27;16.77;;;31.40;95.50;;;;;;5052973;28;20461;-71
2021/09/14 12:01:07;;;;;;;18.53;17.43;;;31.00;95.40;;;;;;5040362;28;20815;-71
2021/09/14 12:03:38;;;;;;;18.63;17.13;;;31.50;95.40;;;;;;5041238;28;20952;-71
2021/09/14 12:06:06;;;;;;;18.43;16.87;;;31.10;96.00;;;;;;5039459;28;20499;-71
2021/09/14 12:08:38;;;;;;;23.43;17.60;;;31.20;95.80;;;;;;5037346;28;21123;-71
2021/09/14 12:11:06;;;;;;;19.50;17.37;;;31.30;96.20;;;;;;5058091;28;20451;-72
2021/09/14 12:13:38;;;;;;;19.70;18.40;;;31.50;96.00;;;;;;5043459;28;20466;-71
2021/09/14 12:16:09;;;;;;;19.27;17.57;;;31.40;95.80;;;;;;5043522;28;20574;-71
2021/09/14 12:18:38;;;;;;;18.37;16.57;;;31.20;95.70;;;;;;5041868;28;20503;-72
2021/09/14 12:21:05;;;;;;;20.10;17.97;;;30.90;96.50;;;;;;5050567;28;21010;-71
2021/09/14 12:23:35;;;;;;;19.43;17.40;;;30.70;97.20;;;;;;5045527;28;20487;-71
2021/09/14 12:26:01;;;;;;;18.03;16.93;;;30.70;97.30;;;;;;5042527;28;20452;-71
2021/09/14 12:28:28;;;;;;;19.40;18.00;;;30.10;97.50;;;;;;5044574;28;20904;-71
2021/09/14 12:30:56;;;;;;;20.03;18.30;;;29.90;98.20;;;;;;5045094;28;20456;-71
2021/09/14 12:33:23;;;;;;;20.03;18.20;;;29.90;97.70;;;;;;5055215;28;20456;-71
2021/09/14 12:35:51;;;;;;;18.10;16.40;;;29.90;98.30;;;;;;5057405;28;20545;-71
2021/09/14 12:38:18;;;;;;;19.43;17.63;;;29.60;98.40;;;;;;5050811;28;20451;-71
2021/09/14 12:40:46;;;;;;;21.03;18.77;;;29.30;99.20;;;;;;5045892;28;20460;-72
2021/09/14 12:43:15;;;;;;;18.90;17.10;;;29.30;99.20;;;;;;5042660;28;20479;-71
2021/09/14 12:45:42;;;;;;;18.77;17.27;;;29.60;99.40;;;;;;5046000;28;20544;-71
2021/09/14 12:48:09;;;;;;;18.43;16.73;;;30.00;98.90;;;;;;5046396;28;20453;-71
2021/09/14 12:50:36;;;;;;;19.60;17.70;;;29.80;98.90;;;;;;5047560;28;20443;-71
2021/09/14 12:53:05;;;;;;;20.00;18.10;;;29.80;99.10;;;;;;5036589;28;20449;-71
2021/09/14 12:55:36;;;;;;;19.83;18.10;;;29.80;99.30;;;;;;5039889;28;20526;-71
2021/09/14 12:58:06;;;;;;;20.03;18.00;;;30.20;99.10;;;;;;5051356;28;20456;-72
2021/09/14 13:00:34;;;;;;;19.53;18.13;;;30.80;99.00;;;;;;5048546;28;20472;-71
2021/09/14 13:03:03;;;;;;;27.53;18.90;;;31.50;97.90;;;;;;5050574;28;20727;-72
2021/09/14 13:05:32;;;;;;;20.10;18.40;;;31.60;96.60;;;;;;5043944;28;20459;-71
2021/09/14 13:07:59;;;;;;;19.00;17.60;;;31.60;96.60;;;;;;5041423;28;20476;-72
2021/09/14 13:10:27;;;;;;;18.93;17.40;;;31.70;96.70;;;;;;5042645;28;20465;-71
2021/09/14 13:18:22;;;;;;;18.20;17.00;;;31.50;97.00;;;;;;5052495;28;20450;-71
2021/09/14 13:20:48;;;;;;;18.23;16.83;;;31.10;97.10;;;;;;5053763;28;20470;-71
2021/09/14 13:23:17;;;;;;;19.40;17.00;;;30.60;97.10;;;;;;5042865;28;20851;-71
2021/09/14 13:25:44;;;;;;;17.97;16.63;;;30.20;97.90;;;;;;5043273;28;20455;-71